CST,Max TemperatureF,Mean TemperatureF,Min TemperatureF,Max Dew PointF,MeanDew PointF,Min DewpointF,Max Humidity, Mean Humidity, Min Humidity, Max Sea Level PressureIn, Mean Sea Level PressureIn, Min Sea Level PressureIn, Max VisibilityMiles, Mean VisibilityMiles, Min VisibilityMiles, Max Wind SpeedMPH, Mean Wind SpeedMPH, Max Gust SpeedMPH,PrecipitationIn, CloudCover, Events, WindDirDegrees
2014-1-1,53,37,19,36,29,18,93,76,51,30.30,30.03,29.87,10,10,10,31,13,38,0.00,2,,221
2014-1-2,35,25,15,23,18,12,93,73,56,30.50,30.42,30.31,10,10,10,22,11,26,0.00,0,,342
2014-1-3,48,36,23,27,23,19,86,63,43,30.40,30.16,29.88,10,10,10,28,13,37,0.00,0,,160
2014-1-4,57,42,26,36,30,23,87,67,41,29.93,29.79,29.70,10,10,10,26,18,33,0.00,1,,227
2014-1-5,26,18,10,23,12,3,93,75,54,30.60,30.26,29.93,10,9,2,30,21,36,0.00,5,Snow,345
2014-1-6,26,16,6,9,4,0,92,62,36,30.71,30.59,30.46,10,10,10,13,7,22,0.00,0,,279
2014-1-7,46,34,21,23,16,9,68,52,37,30.46,30.29,30.17,10,10,10,22,12,28,0.00,0,,191
2014-1-8,37,34,30,36,27,14,100,82,48,30.23,30.15,30.11,10,7,2,17,12,24,0.02,6,Rain-Thunderstorm,126
2014-1-9,35,34,32,36,34,32,100,100,100,30.22,30.13,29.98,7,2,0,10,5,,0.00,8,Fog,127
2014-1-10,57,46,35,54,39,28,100,81,44,29.97,29.77,29.64,10,6,0,18,10,28,0.01,4,Fog-Rain-Thunderstorm,219
2014-1-11,60,46,32,32,28,23,81,56,29,30.05,29.98,29.84,10,10,10,17,8,24,0.00,0,,265
2014-1-12,71,56,41,43,33,27,61,45,29,29.95,29.77,29.62,10,10,10,32,15,46,0.00,0,,185
2014-1-13,57,48,39,34,27,19,70,49,29,30.04,29.97,29.82,10,10,10,17,10,24,0.00,0,,293
2014-1-14,53,42,30,34,22,18,64,47,38,30.34,30.14,29.94,10,10,10,25,9,31,0.00,1,,306
2014-1-15,53,40,26,28,26,19,86,61,38,30.35,30.21,29.98,10,10,10,12,7,,0.00,0,,252
2014-1-16,59,47,35,32,24,14,75,45,24,30.21,30.07,29.95,10,10,10,23,11,38,0.00,1,,302
2014-1-17,48,38,28,21,19,16,64,47,30,30.34,30.24,30.09,10,10,10,20,11,25,0.00,0,,293
2014-1-18,62,48,35,32,26,21,70,46,31,30.22,30.08,29.99,10,10,10,21,11,30,0.00,0,,282
2014-1-19,62,44,26,30,27,23,86,55,30,30.25,30.12,29.95,10,10,10,21,8,25,0.00,0,,218
2014-1-20,62,47,32,34,29,27,81,51,31,30.31,30.00,29.86,10,10,10,24,10,34,0.00,0,,335
2014-1-21,42,32,21,23,12,7,60,48,35,30.50,30.33,30.14,10,10,10,30,14,39,0.00,0,,6
2014-1-22,50,36,21,27,21,14,86,57,40,30.31,30.16,30.08,10,10,10,17,6,23,0.00,0,,40
2014-1-23,32,21,10,21,4,-4,69,48,33,30.79,30.64,30.32,10,10,10,24,15,33,0.00,4,,10
2014-1-24,41,24,8,16,7,0,73,48,27,30.77,30.44,30.10,10,10,10,24,7,28,0.00,0,,212
2014-1-25,64,48,32,36,28,14,75,49,34,30.12,30.05,29.94,10,10,10,17,7,21,0.00,0,,293
2014-1-26,66,49,32,34,32,28,93,58,28,30.02,29.80,29.68,10,10,10,32,4,48,0.00,0,,323
2014-1-27,37,27,17,27,2,-4,70,39,26,30.43,30.33,30.04,10,10,10,29,21,44,0.00,4,,15
2014-1-28,30,22,14,12,8,-4,93,58,38,30.53,30.44,30.38,10,10,4,16,9,18,0.00,3,Snow,357
2014-1-29,46,30,14,18,12,5,79,50,27,30.38,30.23,30.01,10,10,10,23,9,28,0.00,0,,182
2014-1-30,53,42,32,37,25,14,87,54,38,30.00,29.83,29.76,10,10,10,24,17,36,0.00,0,,157
2014-1-31,48,39,30,48,37,30,100,94,70,29.86,29.81,29.72,10,7,1,17,7,26,0.00,5,,38